Time;durP1;ratioP1;P1;durP2;ratioP2;P2;SDS_P1;SDS_P2;PMS_P1;PMS_P2;Temp;Humidity;BMP_temperature;BMP_pressure;BME280_temperature;BME280_humidity;BME280_pressure;Samples;Min_cycle;Max_cycle;Signal;HPM_P1;HPM_P2
2022/04/21 00:01:37;;;;;;;1.50;0.73;;;;;;;8.04;83.22;101333.00;6225486;28;20052;-72
2022/04/21 00:04:38;;;;;;;1.38;0.50;;;;;;;7.98;82.36;101326.22;6226423;28;20049;-72
2022/04/21 00:07:40;;;;;;;2.65;1.00;;;;;;;7.89;82.18;101322.16;6226050;28;20057;-72
2022/04/21 00:10:43;;;;;;;1.45;0.50;;;;;;;7.87;83.21;101316.13;6225470;28;20556;-72
2022/04/21 00:13:44;;;;;;;1.58;0.90;;;;;;;7.79;82.24;101325.13;6225170;28;20041;-72
2022/04/21 00:16:45;;;;;;;0.90;0.65;;;;;;;7.70;82.20;101326.28;6225901;28;20057;-72
2022/04/21 00:19:47;;;;;;;0.57;0.47;;;;;;;7.67;81.79;101328.13;6225406;28;20042;-71
2022/04/21 00:26:09;;;;;;;1.73;1.17;;;;;;;7.55;82.76;101313.69;6223840;28;20089;-72
2022/04/21 00:29:10;;;;;;;1.00;0.63;;;;;;;7.54;85.40;101309.34;6225937;28;20136;-72
2022/04/21 00:32:11;;;;;;;2.90;1.58;;;;;;;7.52;86.21;101303.31;6225145;28;20053;-71
2022/04/21 00:35:15;;;;;;;1.92;0.98;;;;;;;7.49;86.49;101299.03;6224391;28;20049;-72
2022/04/21 00:38:16;;;;;;;1.88;0.73;;;;;;;7.46;86.89;101301.78;6221321;28;20099;-72
2022/04/21 00:41:19;;;;;;;1.02;0.90;;;;;;;7.43;87.30;101299.25;6222820;28;20448;-72
2022/04/21 00:44:20;;;;;;;1.48;0.90;;;;;;;7.44;87.44;101297.47;6223747;28;20413;-72
2022/04/21 00:47:22;;;;;;;1.80;1.27;;;;;;;7.39;87.61;101295.00;6223421;28;20045;-71
2022/04/21 00:50:27;;;;;;;1.65;0.82;;;;;;;7.36;88.06;101292.50;6222853;28;20049;-72
2022/04/21 00:53:28;;;;;;;2.15;1.10;;;;;;;7.34;88.95;101300.38;6224550;28;20542;-72
2022/04/21 00:56:31;;;;;;;2.15;1.10;;;;;;;7.33;89.18;101297.81;6225195;28;20054;-72
2022/04/21 00:59:34;;;;;;;1.33;1.05;;;;;;;7.34;89.88;101289.94;6224948;28;20383;-72
2022/04/21 01:02:48;;;;;;;2.13;1.20;;;;;;;7.30;89.72;101297.91;6224390;28;20065;-72
2022/04/21 01:05:50;;;;;;;1.42;0.68;;;;;;;7.26;88.98;101304.13;6224653;28;20046;-72
2022/04/21 01:08:51;;;;;;;3.92;1.30;;;;;;;7.20;89.37;101296.50;6224935;28;20060;-72
2022/04/21 01:11:54;;;;;;;1.20;0.98;;;;;;;7.10;89.77;101302.00;6222763;28;20414;-71
2022/04/21 01:14:55;;;;;;;1.45;0.98;;;;;;;7.03;90.31;101295.22;6224802;28;20445;-71
2022/04/21 01:17:57;;;;;;;2.00;1.40;;;;;;;7.00;91.88;101307.56;6224423;28;20049;-72
2022/04/21 01:20:59;;;;;;;2.13;1.40;;;;;;;6.95;91.70;101297.25;6223600;28;20072;-72
2022/04/21 01:24:01;;;;;;;1.40;1.10;;;;;;;6.94;93.02;101299.88;6224549;28;20049;-71
2022/04/21 01:27:03;;;;;;;1.73;1.25;;;;;;;6.96;93.10;101298.94;6222857;28;20057;-71
2022/04/21 01:30:07;;;;;;;1.30;0.93;;;;;;;6.91;93.29;101294.75;6222493;28;20073;-72
2022/04/21 01:33:09;;;;;;;1.80;1.40;;;;;;;6.85;93.74;101290.53;6221965;28;20046;-72
2022/04/21 01:36:11;;;;;;;2.38;1.02;;;;;;;6.73;92.68;101289.16;6222530;28;20046;-72
2022/04/21 01:42:32;;;;;;;1.77;1.33;;;;;;;6.66;94.25;101291.97;6222637;28;20132;-72
2022/04/21 01:45:34;;;;;;;4.60;1.42;;;;;;;6.66;95.23;101290.22;6223700;28;20060;-71
2022/04/21 01:48:35;;;;;;;3.78;1.48;;;;;;;6.64;95.03;101286.81;6223910;28;20057;-72
2022/04/21 01:51:38;;;;;;;1.73;1.33;;;;;;;6.56;95.00;101284.41;6222956;28;20046;-72
2022/04/21 01:54:39;;;;;;;4.82;1.20;;;;;;;6.57;97.12;101283.50;6223806;28;20141;-72
2022/04/21 01:57:41;;;;;;;2.17;1.30;;;;;;;6.55;96.63;101276.63;6223588;28;20516;-72
2022/04/21 02:00:42;;;;;;;2.40;1.38;;;;;;;6.48;96.70;101277.69;6222658;28;20058;-72
2022/04/21 02:03:43;;;;;;;1.60;1.23;;;;;;;6.47;96.88;101273.38;6223488;28;20056;-72
2022/04/21 02:06:46;;;;;;;1.98;1.20;;;;;;;6.41;96.35;101278.78;6222656;28;20422;-72
2022/04/21 02:09:47;;;;;;;3.92;1.40;;;;;;;6.36;96.82;101273.69;6223212;28;20053;-72
2022/04/21 02:12:49;;;;;;;2.17;1.75;;;;;;;6.38;97.10;101271.00;6222457;28;20056;-72
2022/04/21 02:15:50;;;;;;;2.58;1.38;;;;;;;6.34;97.20;101259.78;6222668;28;20042;-72
2022/04/21 02:18:52;;;;;;;5.93;1.30;;;;;;;6.27;98.07;101261.72;6222675;28;20049;-72
2022/04/21 02:21:54;;;;;;;2.55;1.60;;;;;;;6.26;98.73;101262.59;6221697;28;20053;-72
2022/04/21 02:24:57;;;;;;;2.75;1.50;;;;;;;6.26;99.14;101266.97;6222406;28;20429;-72
2022/04/21 02:27:58;;;;;;;2.83;1.67;;;;;;;6.22;99.20;101267.94;6220073;28;20053;-72
2022/04/21 02:30:59;;;;;;;3.63;1.30;;;;;;;6.17;98.97;101262.00;6222102;28;20049;-72
2022/04/21 02:34:01;;;;;;;1.75;1.10;;;;;;;6.18;100.00;101263.72;6222866;28;20536;-71
2022/04/21 02:37:04;;;;;;;2.70;1.30;;;;;;;6.17;100.00;101265.47;6222903;28;20054;-72
2022/04/21 02:40:07;;;;;;;3.30;1.52;;;;;;;6.17;99.54;101256.78;6222188;28;20493;-72
2022/04/21 02:43:08;;;;;;;3.03;1.70;;;;;;;6.15;99.66;101261.19;6222527;28;20437;-72
2022/04/21 02:46:10;;;;;;;4.30;2.30;;;;;;;6.12;99.54;101261.28;6222570;28;20057;-72
2022/04/21 02:49:12;;;;;;;5.35;2.08;;;;;;;6.10;100.00;101251.75;6222624;28;20129;-72
2022/04/21 02:52:15;;;;;;;2.75;1.70;;;;;;;6.09;99.83;101255.25;6221801;28;20050;-72
2022/04/21 02:58:36;;;;;;;2.42;1.77;;;;;;;6.01;99.59;101264.16;6222367;28;20045;-72
2022/04/21 03:01:37;;;;;;;2.65;1.52;;;;;;;5.99;99.48;101266.81;6221680;28;20053;-72
2022/04/21 03:04:38;;;;;;;1.80;1.15;;;;;;;6.03;99.87;101260.59;6222154;28;20053;-72
2022/04/21 03:07:41;;;;;;;2.38;1.15;;;;;;;6.02;99.84;101263.28;6222505;28;20053;-72
2022/04/21 03:10:42;;;;;;;2.85;1.42;;;;;;;5.99;99.52;101269.41;6221407;28;20058;-72
2022/04/21 03:13:44;;;;;;;2.53;1.15;;;;;;;5.98;98.94;101266.84;6222518;28;20057;-72
2022/04/21 03:16:45;;;;;;;2.75;1.45;;;;;;;5.97;100.00;101270.38;6220628;28;20050;-72
2022/04/21 03:19:46;;;;;;;1.83;1.48;;;;;;;5.97;100.00;101268.59;6219971;28;20046;-72
2022/04/21 03:26:17;;;;;;;3.70;1.63;;;;;;;5.81;100.00;101267.25;6220263;28;20050;-71
2022/04/21 03:29:19;;;;;;;2.05;1.40;;;;;;;5.80;100.00;101265.53;6218342;28;20046;-71
2022/04/21 03:32:20;;;;;;;5.75;1.73;;;;;;;5.77;100.00;101266.47;6219495;28;20065;-72
2022/04/21 03:35:22;;;;;;;1.90;1.35;;;;;;;5.76;100.00;101263.91;6223367;28;20045;-72
2022/04/21 03:38:24;;;;;;;2.38;1.40;;;;;;;5.73;100.00;101264.84;6226055;28;20054;-72
2022/04/21 03:41:26;;;;;;;2.20;1.42;;;;;;;5.70;100.00;101266.66;6226178;28;20050;-72
2022/04/21 03:44:27;;;;;;;2.00;1.52;;;;;;;5.63;100.00;101268.56;6226546;28;20049;-71
2022/04/21 03:47:28;;;;;;;3.22;1.52;;;;;;;5.62;100.00;101263.38;6226713;28;20057;-72
2022/04/21 03:50:31;;;;;;;3.92;1.60;;;;;;;5.63;100.00;101265.09;6225669;28;20050;-72
2022/04/21 03:53:34;;;;;;;2.78;1.25;;;;;;;5.64;100.00;101259.00;6226607;28;20136;-72
2022/04/21 03:56:35;;;;;;;2.72;1.73;;;;;;;5.59;100.00;101259.97;6226493;28;20413;-72
2022/04/21 03:59:37;;;;;;;2.55;1.27;;;;;;;5.54;100.00;101264.44;6226254;28;20056;-72
2022/04/21 04:02:38;;;;;;;2.75;1.58;;;;;;;5.55;100.00;101260.09;6225942;28;20050;-72
2022/04/21 04:05:40;;;;;;;3.58;1.10;;;;;;;5.50;100.00;101260.19;6226180;28;20421;-71
2022/04/21 04:12:03;;;;;;;2.85;1.70;;;;;;;5.48;100.00;101250.69;6224928;28;20121;-72
2022/04/21 04:15:07;;;;;;;4.72;1.70;;;;;;;5.49;100.00;101245.44;6224217;28;20524;-71
2022/04/21 04:18:08;;;;;;;2.45;1.55;;;;;;;5.49;100.00;101255.00;6225873;28;20050;-71
2022/04/21 04:21:12;;;;;;;2.72;1.35;;;;;;;5.48;100.00;101261.13;6225064;28;20053;-71
2022/04/21 04:24:14;;;;;;;2.70;1.90;;;;;;;5.47;100.00;101255.03;6225713;28;20057;-72
2022/04/21 04:27:16;;;;;;;2.50;1.73;;;;;;;5.46;100.00;101255.94;6225663;28;20050;-72
2022/04/21 04:30:18;;;;;;;2.47;1.48;;;;;;;5.44;100.00;101257.72;6223840;28;20049;-72
2022/04/21 04:33:20;;;;;;;3.78;1.77;;;;;;;5.43;100.00;101255.16;6224292;28;20050;-72
2022/04/21 04:36:22;;;;;;;3.65;2.03;;;;;;;5.40;100.00;101256.06;6224801;28;20053;-72
2022/04/21 04:39:24;;;;;;;3.70;1.80;;;;;;;5.43;100.00;101258.63;6225149;28;20074;-72
2022/04/21 04:42:26;;;;;;;3.20;1.75;;;;;;;5.41;100.00;101257.81;6224289;28;20061;-72
2022/04/21 04:48:46;;;;;;;5.07;2.50;;;;;;;5.41;100.00;101267.38;6224824;28;20413;-72
2022/04/21 04:51:48;;;;;;;2.55;1.63;;;;;;;5.41;100.00;101263.03;6223457;28;20053;-71
2022/04/21 04:54:50;;;;;;;5.13;2.22;;;;;;;5.35;100.00;101256.19;6223329;28;20053;-72
2022/04/21 04:57:52;;;;;;;4.18;1.60;;;;;;;5.37;100.00;101261.38;6223466;28;20497;-73
2022/04/21 05:00:53;;;;;;;3.83;1.98;;;;;;;5.37;100.00;101265.75;6222775;28;20057;-74
2022/04/21 05:04:01;;;;;;;4.40;1.83;;;;;;;5.40;100.00;101256.06;6223762;28;20056;-71
2022/04/21 05:07:02;;;;;;;7.40;2.17;;;;;;;5.36;100.00;101257.06;6224079;28;20394;-71
2022/04/21 05:10:07;;;;;;;2.67;1.92;;;;;;;5.33;100.00;101263.19;6223078;28;20429;-72
2022/04/21 05:13:08;;;;;;;5.53;2.20;;;;;;;5.35;100.00;101257.94;6224316;28;20057;-72
2022/04/21 05:16:09;;;;;;;3.05;2.00;;;;;;;5.28;100.00;101251.16;6224214;28;20493;-71
2022/04/21 05:19:13;;;;;;;3.38;2.25;;;;;;;5.33;100.00;101252.78;6224778;28;20057;-72
2022/04/21 05:22:16;;;;;;;4.75;2.40;;;;;;;5.42;100.00;101261.28;6223732;28;20073;-72
2022/04/21 05:25:20;;;;;;;2.88;1.85;;;;;;;5.42;100.00;101256.06;6224788;28;20489;-71
2022/04/21 05:28:21;;;;;;;2.38;1.60;;;;;;;5.43;100.00;101270.78;6224501;28;20065;-71
2022/04/21 05:31:25;;;;;;;4.20;2.42;;;;;;;5.42;100.00;101267.34;6223602;28;20057;-72
2022/04/21 05:34:28;;;;;;;3.45;2.40;;;;;;;5.49;100.00;101287.13;6224206;28;20129;-72
2022/04/21 05:37:30;;;;;;;4.57;2.45;;;;;;;5.50;100.00;101274.97;6224134;28;20050;-72
2022/04/21 05:40:33;;;;;;;3.20;2.10;;;;;;;5.51;100.00;101274.94;6223091;28;20425;-71
2022/04/21 05:43:42;;;;;;;3.50;2.03;;;;;;;5.53;100.00;101273.13;6223792;28;20144;-71
2022/04/21 05:46:44;;;;;;;2.53;1.80;;;;;;;5.55;100.00;101270.50;6223939;28;20058;-71
2022/04/21 05:49:46;;;;;;;4.35;2.03;;;;;;;5.58;100.00;101268.66;6223062;28;20046;-72
2022/04/21 05:52:53;;;;;;;6.47;2.40;;;;;;;5.64;100.00;101264.22;6223493;28;20056;-71
2022/04/21 05:55:56;;;;;;;8.50;2.85;;;;;;;5.73;100.00;101277.03;6223753;28;20050;-70
2022/04/21 05:58:57;;;;;;;7.85;3.08;;;;;;;5.75;100.00;101270.00;6223103;28;20057;-71
2022/04/21 06:01:59;;;;;;;3.60;2.40;;;;;;;5.76;100.00;101282.16;6222626;28;20493;-72
2022/04/21 06:05:00;;;;;;;3.95;2.42;;;;;;;5.72;100.00;101270.97;6223386;28;20111;-71
2022/04/21 06:08:02;;;;;;;4.95;2.65;;;;;;;5.76;100.00;101269.09;6223305;28;20116;-72
2022/04/21 06:11:05;;;;;;;8.52;3.67;;;;;;;5.81;100.00;101275.94;6222852;28;20057;-72
2022/04/21 06:14:07;;;;;;;5.15;3.35;;;;;;;5.90;100.00;101273.97;6223160;28;20537;-71
2022/04/21 06:17:08;;;;;;;4.40;3.17;;;;;;;5.95;100.00;101274.75;6222771;28;20493;-72
2022/04/21 06:20:10;;;;;;;6.20;3.20;;;;;;;6.04;100.00;101271.91;6222383;28;20045;-72
2022/04/21 06:23:11;;;;;;;5.47;2.70;;;;;;;6.10;100.00;101269.16;6222201;28;20041;-71
2022/04/21 06:26:14;;;;;;;4.50;2.55;;;;;;;6.20;100.00;101275.81;6222824;28;20611;-72
2022/04/21 06:29:15;;;;;;;9.73;4.13;;;;;;;6.24;100.00;101271.38;6222746;28;20154;-71
2022/04/21 06:32:17;;;;;;;8.73;3.05;;;;;;;6.28;100.00;101273.88;6222091;28;20050;-72
2022/04/21 06:35:18;;;;;;;3.50;2.10;;;;;;;6.35;100.00;101267.56;6222492;28;20409;-71
2022/04/21 06:38:20;;;;;;;5.13;2.80;;;;;;;6.44;100.00;101265.59;6222861;28;20494;-71
2022/04/21 06:41:22;;;;;;;3.90;2.47;;;;;;;6.53;100.00;101260.13;6221774;28;20046;-72
2022/04/21 06:51:02;;;;;;;5.10;2.47;;;;;;;7.04;100.00;101272.56;6221765;28;20045;-72
2022/04/21 06:54:04;;;;;;;3.00;1.92;;;;;;;7.19;100.00;101268.66;6222271;28;20076;-71
2022/04/21 06:57:06;;;;;;;4.57;2.20;;;;;;;7.37;100.00;101266.31;6222232;28;20425;-72
2022/04/21 07:00:09;;;;;;;6.47;2.80;;;;;;;7.47;99.47;101266.00;6221893;28;20042;-71
2022/04/21 07:03:11;;;;;;;3.88;1.83;;;;;;;7.52;97.54;101272.78;6222112;28;20045;-71
2022/04/21 07:06:13;;;;;;;3.05;2.20;;;;;;;7.69;98.06;101279.25;6222245;28;20061;-72
2022/04/21 07:09:15;;;;;;;4.55;2.15;;;;;;;7.74;96.47;101280.81;6221766;28;20050;-72
2022/04/21 07:12:18;;;;;;;4.05;2.25;;;;;;;7.82;94.40;101272.72;6221480;28;20165;-71
2022/04/21 07:15:19;;;;;;;6.03;2.45;;;;;;;7.84;95.33;101271.75;6221989;28;20049;-72
2022/04/21 07:18:20;;;;;;;4.70;2.33;;;;;;;7.80;95.42;101275.34;6222185;28;20050;-71
2022/04/21 07:21:22;;;;;;;5.03;2.35;;;;;;;7.76;94.93;101281.59;6221346;28;20259;-71
2022/04/21 07:24:23;;;;;;;4.50;2.47;;;;;;;7.82;95.25;101278.78;6221799;28;20053;-71
2022/04/21 07:27:26;;;;;;;5.68;2.30;;;;;;;7.86;95.61;101284.78;6221839;28;20045;-72
2022/04/21 07:30:27;;;;;;;3.33;2.13;;;;;;;7.96;94.79;101296.66;6221274;28;20052;-72
2022/04/21 07:33:29;;;;;;;4.65;2.33;;;;;;;8.03;94.33;101297.28;6221862;28;20122;-71
2022/04/21 07:36:30;;;;;;;5.70;2.35;;;;;;;8.11;95.05;101298.75;6221858;28;20498;-72
2022/04/21 07:39:32;;;;;;;3.42;2.30;;;;;;;8.23;93.56;101307.94;6221599;28;20042;-71
2022/04/21 07:42:35;;;;;;;3.35;2.03;;;;;;;8.17;92.18;101302.91;6217949;28;20050;-72
2022/04/21 07:45:38;;;;;;;2.85;1.83;;;;;;;8.17;94.63;101300.28;6215633;28;20424;-72
2022/04/21 07:55:17;;;;;;;4.55;1.88;;;;;;;8.39;92.72;101300.44;6217981;28;20104;-72
2022/04/21 07:58:21;;;;;;;3.97;1.73;;;;;;;8.34;91.48;101290.09;6220659;28;20038;-72
2022/04/21 08:01:22;;;;;;;3.15;2.00;;;;;;;8.29;92.48;101284.16;6218751;28;20184;-71
2022/04/21 08:04:24;;;;;;;2.42;1.92;;;;;;;8.29;93.59;101288.53;6220998;28;20429;-71
2022/04/21 08:07:25;;;;;;;4.20;2.53;;;;;;;8.31;92.61;101284.97;6220827;28;20050;-72
2022/04/21 08:10:29;;;;;;;4.07;2.20;;;;;;;8.30;92.93;101285.84;6220135;28;20045;-72
2022/04/21 08:13:31;;;;;;;6.20;2.25;;;;;;;8.38;92.24;101280.41;6220844;28;20180;-71
2022/04/21 08:16:33;;;;;;;4.68;2.95;;;;;;;8.43;91.00;101278.47;6221448;28;20050;-72
2022/04/21 08:19:34;;;;;;;4.32;1.92;;;;;;;8.48;90.50;101278.28;6220603;28;20494;-71
2022/04/21 08:22:35;;;;;;;6.40;2.75;;;;;;;8.52;91.59;101274.66;6224502;28;20046;-72
2022/04/21 08:35:37;;;;;;;6.18;2.35;;;;;;;9.25;89.57;101271.88;6224519;28;20085;-72
2022/04/21 08:38:39;;;;;;;6.80;2.22;;;;;;;9.54;87.25;101273.34;6221103;28;20065;-71
2022/04/21 08:41:47;;;;;;;3.35;2.20;;;;;;;9.63;84.89;101277.38;6224240;28;20038;-71
2022/04/21 08:44:50;;;;;;;3.95;2.17;;;;;;;9.63;85.04;101270.34;6225181;28;20568;-69
2022/04/21 08:47:57;;;;;;;4.13;1.75;;;;;;;9.70;85.07;101270.94;6225134;28;20060;-69
2022/04/21 08:51:01;;;;;;;4.38;2.33;;;;;;;9.79;84.06;101269.69;6224256;28;20137;-72
2022/04/21 08:54:03;;;;;;;2.95;1.63;;;;;;;9.98;84.73;101267.16;6225358;28;20065;-69
2022/04/21 08:57:05;;;;;;;3.30;1.85;;;;;;;10.19;84.27;101260.13;6224470;28;20497;-69
2022/04/21 09:00:09;;;;;;;5.75;2.17;;;;;;;10.47;82.36;101265.06;6223839;28;20049;-70
2022/04/21 09:03:12;;;;;;;4.72;2.65;;;;;;;10.40;82.52;101260.09;6224708;28;20050;-70
2022/04/21 09:06:13;;;;;;;1.85;1.52;;;;;;;10.44;80.43;101258.16;6224879;28;20060;-70
2022/04/21 09:09:17;;;;;;;4.28;1.73;;;;;;;10.55;78.23;101262.94;6224806;28;20497;-70
2022/04/21 09:12:19;;;;;;;2.92;2.05;;;;;;;10.62;79.59;101253.84;6223763;28;20049;-70
2022/04/21 09:15:23;;;;;;;3.97;2.28;;;;;;;10.66;80.46;101253.63;6224833;28;20514;-70
2022/04/21 09:18:35;;;;;;;2.85;2.13;;;;;;;10.79;79.62;101253.09;6224510;28;20073;-69
2022/04/21 09:21:38;;;;;;;4.82;2.30;;;;;;;10.85;74.70;101244.91;6223445;28;20139;-70
2022/04/21 09:24:40;;;;;;;8.15;3.38;;;;;;;11.00;75.51;101236.31;6224309;28;20050;-70
2022/04/21 09:27:43;;;;;;;7.45;3.00;;;;;;;11.20;74.68;101237.13;6224435;28;20049;-70
2022/04/21 09:30:47;;;;;;;4.43;1.95;;;;;;;11.43;72.46;101232.44;6223464;28;20049;-70
2022/04/21 09:33:49;;;;;;;2.90;1.70;;;;;;;11.60;74.45;101244.78;6223617;28;20066;-70
2022/04/21 09:36:50;;;;;;;4.75;2.20;;;;;;;11.60;71.38;101239.53;6223953;28;20054;-70
2022/04/21 09:39:52;;;;;;;4.65;1.60;;;;;;;11.66;71.93;101246.25;6223371;28;20049;-70
2022/04/21 09:42:55;;;;;;;2.00;1.23;;;;;;;11.65;72.14;101242.78;6223430;28;20054;-70
2022/04/21 09:46:13;;;;;;;4.00;2.10;;;;;;;11.67;70.16;101240.06;6223730;28;20522;-69
2022/04/21 09:49:33;;;;;;;4.78;1.60;;;;;;;11.72;71.60;101239.81;6223804;28;20083;-70
2022/04/21 09:52:37;;;;;;;3.30;1.60;;;;;;;11.74;73.45;101233.56;6223354;28;20046;-70
2022/04/21 09:55:38;;;;;;;3.55;1.50;;;;;;;11.88;72.66;101233.75;6223657;28;20472;-69
2022/04/21 09:58:41;;;;;;;2.75;1.90;;;;;;;11.90;70.16;101226.63;6224174;28;20050;-70
2022/04/21 10:01:44;;;;;;;6.13;1.67;;;;;;;11.85;69.92;101226.00;6222508;28;20046;-70
2022/04/21 10:04:47;;;;;;;2.70;1.55;;;;;;;11.95;71.07;101225.56;6223345;28;20060;-70
2022/04/21 10:07:49;;;;;;;1.92;1.20;;;;;;;12.00;70.08;101215.63;6223703;28;20057;-69
2022/04/21 10:10:51;;;;;;;2.47;1.58;;;;;;;12.17;68.79;101212.94;6222303;28;20046;-70
2022/04/21 10:13:55;;;;;;;2.33;1.73;;;;;;;12.50;67.50;101201.56;6221987;28;20537;-70
2022/04/21 10:16:57;;;;;;;1.70;1.35;;;;;;;12.95;68.40;101206.09;6219450;28;20135;-70
2022/04/21 10:19:59;;;;;;;1.85;1.27;;;;;;;13.10;66.66;101210.50;6222913;28;20049;-69
2022/04/21 10:23:03;;;;;;;2.33;1.50;;;;;;;13.06;67.61;101203.69;6221808;28;20050;-69
2022/04/21 10:26:04;;;;;;;2.03;1.40;;;;;;;13.22;64.26;101206.38;6222953;28;20493;-70
2022/04/21 10:29:13;;;;;;;3.67;1.67;;;;;;;13.51;66.65;101198.53;6222692;28;20053;-70
2022/04/21 10:32:19;;;;;;;2.45;1.48;;;;;;;13.86;62.69;101199.13;6222204;28;20054;-70
2022/04/21 10:35:41;;;;;;;2.00;1.30;;;;;;;13.89;64.25;101199.75;6222614;28;20497;-72
2022/04/21 10:38:43;;;;;;;1.65;1.42;;;;;;;14.16;62.95;101199.03;6222512;28;20461;-71
2022/04/21 10:41:45;;;;;;;3.33;1.60;;;;;;;14.39;62.38;101179.09;6221739;28;20046;-72
2022/04/21 10:44:48;;;;;;;1.95;1.30;;;;;;;14.61;58.36;101179.50;6221607;28;20564;-71
2022/04/21 10:48:05;;;;;;;2.15;1.45;;;;;;;14.62;61.37;101186.47;6222472;28;20050;-72
2022/04/21 10:51:06;;;;;;;4.50;1.05;;;;;;;14.66;59.20;101180.03;6221972;28;20432;-72
2022/04/21 10:57:29;;;;;;;4.18;1.15;;;;;;;15.21;56.81;101175.63;6222560;28;20054;-70
2022/04/21 11:00:32;;;;;;;5.07;1.15;;;;;;;15.05;57.88;101167.00;6221458;28;20050;-72
2022/04/21 11:03:36;;;;;;;1.75;1.10;;;;;;;15.19;60.72;101165.16;6222512;28;20490;-72
2022/04/21 11:06:40;;;;;;;3.88;2.03;;;;;;;15.47;57.69;101171.25;6222483;28;20065;-73
2022/04/21 11:09:44;;;;;;;4.10;1.13;;;;;;;15.53;58.02;101157.59;6222154;28;20050;-72
2022/04/21 11:12:49;;;;;;;1.33;1.10;;;;;;;15.60;56.40;101158.03;6221797;28;20041;-73
2022/04/21 11:15:53;;;;;;;1.73;0.93;;;;;;;15.74;54.89;101160.63;6222322;28;20458;-72
2022/04/21 11:19:32;;;;;;;3.08;1.15;;;;;;;15.82;56.68;101157.47;6222248;28;20054;-70
2022/04/21 11:22:38;;;;;;;2.28;1.30;;;;;;;15.98;55.35;101158.94;6221048;28;20087;-70
2022/04/21 11:25:41;;;;;;;2.13;1.10;;;;;;;16.06;54.85;101147.78;6221807;28;20053;-70
2022/04/21 11:28:43;;;;;;;1.48;0.98;;;;;;;16.04;52.62;101155.03;6222097;28;20441;-72
2022/04/21 11:31:45;;;;;;;2.20;1.27;;;;;;;16.18;53.85;101146.94;6221116;28;20498;-70
2022/04/21 11:34:59;;;;;;;2.15;0.95;;;;;;;16.67;55.26;101132.81;6222229;28;20490;-70
2022/04/21 11:38:01;;;;;;;1.98;1.33;;;;;;;16.63;51.82;101141.97;6221847;28;20129;-70
2022/04/21 11:41:03;;;;;;;0.80;0.77;;;;;;;16.49;55.04;101135.00;6221163;28;20445;-69
2022/04/21 11:44:05;;;;;;;2.33;1.25;;;;;;;16.65;54.76;101129.41;6221752;28;20497;-70
2022/04/21 11:47:07;;;;;;;3.55;1.45;;;;;;;16.52;51.62;101128.63;6221806;28;20521;-70
2022/04/21 11:50:10;;;;;;;2.58;1.38;;;;;;;16.26;54.50;101133.16;6220524;28;20664;-70
2022/04/21 11:53:15;;;;;;;2.80;1.63;;;;;;;16.22;55.16;101124.56;6219930;28;20052;-69
2022/04/21 11:56:17;;;;;;;2.88;1.45;;;;;;;16.18;54.19;101125.72;6224643;28;20137;-70
2022/04/21 11:59:19;;;;;;;1.65;1.15;;;;;;;16.00;55.97;101116.41;6225603;28;20045;-69
2022/04/21 12:09:04;;;;;;;2.80;1.70;;;;;;;15.49;58.77;101113.75;6226140;28;20053;-70
2022/04/21 12:12:07;;;;;;;2.25;1.45;;;;;;;15.38;59.97;101108.31;6225457;28;20045;-70
2022/04/21 12:15:09;;;;;;;2.13;1.05;;;;;;;15.36;59.77;101110.22;6225992;28;20648;-69
2022/04/21 12:18:10;;;;;;;3.92;1.23;;;;;;;15.50;56.81;101110.13;6226202;28;20054;-70
2022/04/21 12:21:13;;;;;;;2.70;1.52;;;;;;;15.38;58.15;101106.50;6225331;28;20045;-70
2022/04/21 12:24:17;;;;;;;6.82;1.40;;;;;;;15.34;58.01;101112.13;6225700;28;20431;-70
2022/04/21 12:27:20;;;;;;;1.30;0.93;;;;;;;15.46;58.61;101101.53;6225663;28;20054;-70
2022/04/21 12:30:22;;;;;;;1.33;1.02;;;;;;;15.53;58.69;101107.25;6224742;28;20525;-70
2022/04/21 12:33:23;;;;;;;2.40;1.58;;;;;;;15.60;59.23;101097.94;6226035;28;20060;-70
2022/04/21 12:36:27;;;;;;;3.67;1.38;;;;;;;15.66;56.85;101099.34;6225547;28;20077;-70
2022/04/21 12:39:30;;;;;;;2.03;1.20;;;;;;;15.85;57.39;101097.16;6225694;28;20050;-70
2022/04/21 12:42:33;;;;;;;2.55;1.17;;;;;;;16.16;56.93;101094.97;6224700;28;20042;-70
2022/04/21 12:45:34;;;;;;;1.25;0.90;;;;;;;16.39;56.32;101085.34;6225730;28;20053;-70
2022/04/21 12:48:36;;;;;;;2.35;1.30;;;;;;;16.61;57.17;101077.53;6225325;28;20054;-70
2022/04/21 12:51:48;;;;;;;1.48;0.93;;;;;;;16.62;54.24;101075.72;6224544;28;20417;-70
2022/04/21 12:54:49;;;;;;;3.28;0.90;;;;;;;16.72;52.56;101074.13;6225212;28;20509;-69
2022/04/21 12:57:59;;;;;;;1.38;0.90;;;;;;;16.70;53.72;101073.34;6224948;28;20050;-70
2022/04/21 13:01:01;;;;;;;2.80;1.08;;;;;;;16.58;53.03;101069.81;6223848;28;20054;-70
2022/04/21 13:04:02;;;;;;;1.75;0.90;;;;;;;16.33;53.32;101064.59;6224904;28;20056;-70
2022/04/21 13:07:05;;;;;;;1.40;1.00;;;;;;;16.11;54.02;101067.94;6224021;28;20053;-70
2022/04/21 13:10:07;;;;;;;0.65;0.63;;;;;;;15.98;55.55;101057.34;6224272;28;20057;-70
2022/04/21 13:13:08;;;;;;;1.38;0.90;;;;;;;15.99;55.86;101061.72;6224297;28;20053;-70
2022/04/21 13:16:09;;;;;;;1.40;0.90;;;;;;;15.94;53.23;101062.03;6224733;28;20482;-70
2022/04/21 13:19:11;;;;;;;1.92;1.00;;;;;;;15.91;56.73;101058.75;6224845;28;20056;-70
2022/04/21 13:22:13;;;;;;;1.58;1.00;;;;;;;15.97;54.95;101059.16;6223493;28;20065;-70
2022/04/21 13:25:15;;;;;;;5.47;0.80;;;;;;;16.10;54.33;101056.47;6224470;28;20452;-70
2022/04/21 13:28:16;;;;;;;1.95;1.20;;;;;;;16.40;53.67;101056.09;6224571;28;20046;-70
2022/04/21 13:34:37;;;;;;;2.58;1.20;;;;;;;16.77;51.75;101045.44;6224439;28;20507;-70
2022/04/21 13:37:39;;;;;;;1.48;1.00;;;;;;;16.98;51.62;101046.47;6224177;28;20045;-70
2022/04/21 13:40:40;;;;;;;1.45;0.95;;;;;;;17.17;50.01;101039.78;6223251;28;20387;-70
2022/04/21 13:43:42;;;;;;;5.63;1.55;;;;;;;16.79;47.73;101043.50;6224422;28;20058;-70
2022/04/21 13:46:44;;;;;;;1.20;1.10;;;;;;;16.65;49.07;101039.19;6223154;28;20085;-70
2022/04/21 13:49:46;;;;;;;1.67;0.90;;;;;;;16.48;45.29;101036.94;6223439;28;20422;-70
2022/04/21 13:52:48;;;;;;;0.82;0.60;;;;;;;16.24;44.45;101032.47;6223603;28;20135;-71
2022/04/21 13:55:50;;;;;;;1.15;0.55;;;;;;;16.08;46.46;101041.63;6221511;28;20545;-70
2022/04/21 13:58:51;;;;;;;0.70;0.70;;;;;;;16.07;47.61;101032.81;6223539;28;20524;-70
2022/04/21 14:01:53;;;;;;;0.68;0.63;;;;;;;16.01;46.69;101035.94;6221302;28;20053;-70
2022/04/21 14:04:54;;;;;;;0.85;0.73;;;;;;;16.06;44.66;101035.59;6223417;28;20061;-70
2022/04/21 14:07:57;;;;;;;1.05;0.80;;;;;;;16.11;45.58;101030.81;6223419;28;20060;-70
2022/04/21 14:10:58;;;;;;;1.67;0.80;;;;;;;16.22;47.14;101028.25;6222059;28;20054;-70
2022/04/21 14:13:59;;;;;;;1.40;0.63;;;;;;;16.24;45.34;101024.50;6223016;28;20058;-70
2022/04/21 14:17:01;;;;;;;0.98;0.75;;;;;;;16.25;47.02;101028.00;6223076;28;20056;-70
2022/04/21 14:20:03;;;;;;;1.67;0.82;;;;;;;16.21;46.04;101023.88;6222757;28;20562;-70
2022/04/21 14:23:06;;;;;;;4.97;1.30;;;;;;;16.14;49.30;101020.00;6222159;28;20052;-71
2022/04/21 14:26:08;;;;;;;1.02;0.80;;;;;;;15.87;46.54;101018.34;6223383;28;20050;-72
2022/04/21 14:29:09;;;;;;;1.05;0.70;;;;;;;15.86;47.20;101023.78;6220371;28;20096;-70
2022/04/21 14:32:11;;;;;;;0.80;0.70;;;;;;;15.75;46.99;101018.38;6221323;28;20049;-70
2022/04/21 14:35:12;;;;;;;3.03;1.30;;;;;;;15.65;47.43;101016.38;6222625;28;20053;-73
2022/04/21 14:44:53;;;;;;;1.08;0.95;;;;;;;15.21;49.33;101014.13;6202246;28;20054;-73
2022/04/21 14:47:54;;;;;;;1.30;0.80;;;;;;;15.07;49.53;101015.06;6224427;28;20064;-73
2022/04/21 14:50:56;;;;;;;5.05;0.88;;;;;;;14.92;50.13;101011.66;6219029;28;20046;-70
2022/04/21 14:53:58;;;;;;;2.25;0.80;;;;;;;14.91;51.82;101014.41;6221855;28;20090;-69
2022/04/21 14:57:00;;;;;;;1.92;1.10;;;;;;;14.85;52.20;101010.41;6239172;28;20053;-69
2022/04/21 15:00:04;;;;;;;3.55;1.25;;;;;;;14.80;52.84;101011.63;6224554;28;20056;-69
2022/04/21 15:03:06;;;;;;;3.35;1.50;;;;;;;14.81;53.40;101003.59;6220806;28;20527;-72
2022/04/21 15:06:08;;;;;;;2.58;1.23;;;;;;;14.74;53.72;101007.59;6221756;28;20077;-72
2022/04/21 15:09:11;;;;;;;2.75;1.42;;;;;;;14.70;54.66;101014.88;6216504;28;20056;-72
2022/04/21 15:12:13;;;;;;;4.13;1.17;;;;;;;14.74;53.96;101004.97;6219571;28;20049;-72
2022/04/21 15:15:14;;;;;;;2.22;1.00;;;;;;;14.78;55.83;101009.09;6218598;28;20045;-69